sensor_id;sensor_type;location;lat;lon;timestamp;P1;durP1;ratioP1;P2;durP2;ratioP2
16430;SDS011;8325;49.284;7.238;2023-07-13T04:04:26;5.63;;;2.65;;
16430;SDS011;8325;49.284;7.238;2023-07-13T04:08:38;3.45;;;2.90;;
16430;SDS011;8325;49.284;7.238;2023-07-13T04:12:49;2.80;;;2.53;;
16430;SDS011;8325;49.284;7.238;2023-07-13T04:17:01;2.53;;;2.30;;
16430;SDS011;8325;49.284;7.238;2023-07-13T04:21:13;3.13;;;2.20;;
16430;SDS011;8325;49.284;7.238;2023-07-13T04:25:25;3.72;;;2.38;;
16430;SDS011;8325;49.284;7.238;2023-07-13T04:29:37;6.70;;;2.65;;
16430;SDS011;8325;49.284;7.238;2023-07-13T04:33:49;3.40;;;2.20;;
16430;SDS011;8325;49.284;7.238;2023-07-13T04:38:01;3.70;;;2.63;;
16430;SDS011;8325;49.284;7.238;2023-07-13T04:42:13;2.90;;;2.25;;
16430;SDS011;8325;49.284;7.238;2023-07-13T04:46:25;3.25;;;2.20;;
16430;SDS011;8325;49.284;7.238;2023-07-13T04:50:37;3.70;;;2.40;;
16430;SDS011;8325;49.284;7.238;2023-07-13T04:54:49;4.10;;;2.50;;
16430;SDS011;8325;49.284;7.238;2023-07-13T04:59:00;2.90;;;2.40;;
16430;SDS011;8325;49.284;7.238;2023-07-13T05:03:12;5.40;;;3.08;;
16430;SDS011;8325;49.284;7.238;2023-07-13T05:07:24;3.60;;;2.47;;
16430;SDS011;8325;49.284;7.238;2023-07-13T05:11:37;6.32;;;2.55;;
16430;SDS011;8325;49.284;7.238;2023-07-13T05:15:58;5.93;;;4.05;;
16430;SDS011;8325;49.284;7.238;2023-07-13T05:20:11;6.13;;;4.05;;
16430;SDS011;8325;49.284;7.238;2023-07-13T05:24:23;7.97;;;5.38;;
16430;SDS011;8325;49.284;7.238;2023-07-13T05:28:36;9.82;;;5.38;;
16430;SDS011;8325;49.284;7.238;2023-07-13T05:32:48;9.60;;;4.60;;
16430;SDS011;8325;49.284;7.238;2023-07-13T05:37:00;9.70;;;4.40;;
16430;SDS011;8325;49.284;7.238;2023-07-13T05:41:11;4.75;;;4.05;;
16430;SDS011;8325;49.284;7.238;2023-07-13T05:45:23;6.28;;;3.92;;
16430;SDS011;8325;49.284;7.238;2023-07-13T05:49:35;5.22;;;3.70;;
16430;SDS011;8325;49.284;7.238;2023-07-13T05:53:47;4.45;;;3.38;;
16430;SDS011;8325;49.284;7.238;2023-07-13T05:57:59;8.00;;;3.70;;
16430;SDS011;8325;49.284;7.238;2023-07-13T06:02:11;4.95;;;3.33;;
16430;SDS011;8325;49.284;7.238;2023-07-13T06:06:23;6.60;;;3.30;;
16430;SDS011;8325;49.284;7.238;2023-07-13T06:10:35;6.32;;;3.20;;
16430;SDS011;8325;49.284;7.238;2023-07-13T06:14:47;4.60;;;3.22;;
16430;SDS011;8325;49.284;7.238;2023-07-13T06:18:59;5.43;;;3.20;;
16430;SDS011;8325;49.284;7.238;2023-07-13T06:23:10;3.83;;;2.83;;
16430;SDS011;8325;49.284;7.238;2023-07-13T06:27:23;3.80;;;2.50;;
16430;SDS011;8325;49.284;7.238;2023-07-13T06:31:35;3.75;;;2.97;;
16430;SDS011;8325;49.284;7.238;2023-07-13T06:35:47;4.60;;;2.63;;
16430;SDS011;8325;49.284;7.238;2023-07-13T06:39:58;3.40;;;2.38;;
16430;SDS011;8325;49.284;7.238;2023-07-13T06:44:10;3.85;;;2.50;;
16430;SDS011;8325;49.284;7.238;2023-07-13T06:48:21;5.10;;;2.75;;
16430;SDS011;8325;49.284;7.238;2023-07-13T06:52:33;2.63;;;2.05;;
16430;SDS011;8325;49.284;7.238;2023-07-13T06:56:45;3.22;;;1.98;;
16430;SDS011;8325;49.284;7.238;2023-07-13T07:00:56;4.30;;;1.98;;
16430;SDS011;8325;49.284;7.238;2023-07-13T07:05:08;2.53;;;1.80;;
16430;SDS011;8325;49.284;7.238;2023-07-13T07:09:20;3.30;;;1.85;;
16430;SDS011;8325;49.284;7.238;2023-07-13T07:13:31;2.40;;;1.60;;
16430;SDS011;8325;49.284;7.238;2023-07-13T07:17:43;3.67;;;1.73;;
16430;SDS011;8325;49.284;7.238;2023-07-13T07:21:55;3.38;;;1.70;;
16430;SDS011;8325;49.284;7.238;2023-07-13T07:26:06;3.00;;;1.67;;
16430;SDS011;8325;49.284;7.238;2023-07-13T07:30:20;2.70;;;1.40;;
16430;SDS011;8325;49.284;7.238;2023-07-13T07:34:34;2.97;;;1.50;;
16430;SDS011;8325;49.284;7.238;2023-07-13T07:38:46;2.67;;;1.50;;
16430;SDS011;8325;49.284;7.238;2023-07-13T07:42:57;3.45;;;1.70;;
16430;SDS011;8325;49.284;7.238;2023-07-13T07:47:09;2.80;;;1.20;;
16430;SDS011;8325;49.284;7.238;2023-07-13T07:51:20;1.75;;;1.10;;
16430;SDS011;8325;49.284;7.238;2023-07-13T07:55:32;1.35;;;1.00;;
16430;SDS011;8325;49.284;7.238;2023-07-13T07:59:49;1.80;;;1.17;;
16430;SDS011;8325;49.284;7.238;2023-07-13T08:04:03;2.90;;;1.48;;
16430;SDS011;8325;49.284;7.238;2023-07-13T08:08:18;1.45;;;0.98;;
16430;SDS011;8325;49.284;7.238;2023-07-13T08:12:30;2.28;;;1.30;;
16430;SDS011;8325;49.284;7.238;2023-07-13T08:16:48;2.38;;;1.00;;
16430;SDS011;8325;49.284;7.238;2023-07-13T08:21:03;5.50;;;1.38;;
16430;SDS011;8325;49.284;7.238;2023-07-13T08:25:16;2.15;;;1.20;;
16430;SDS011;8325;49.284;7.238;2023-07-13T08:29:28;2.95;;;1.40;;
16430;SDS011;8325;49.284;7.238;2023-07-13T08:33:43;2.17;;;1.42;;
16430;SDS011;8325;49.284;7.238;2023-07-13T08:37:54;2.65;;;1.38;;
16430;SDS011;8325;49.284;7.238;2023-07-13T08:42:14;2.38;;;1.30;;
16430;SDS011;8325;49.284;7.238;2023-07-13T08:46:36;2.28;;;1.40;;
16430;SDS011;8325;49.284;7.238;2023-07-13T08:50:55;2.65;;;1.42;;
16430;SDS011;8325;49.284;7.238;2023-07-13T08:55:21;1.92;;;1.27;;
16430;SDS011;8325;49.284;7.238;2023-07-13T08:59:37;3.80;;;1.45;;
16430;SDS011;8325;49.284;7.238;2023-07-13T09:04:05;2.92;;;1.27;;
16430;SDS011;8325;49.284;7.238;2023-07-13T09:08:42;2.20;;;1.75;;
16430;SDS011;8325;49.284;7.238;2023-07-13T09:17:49;3.72;;;1.60;;
16430;SDS011;8325;49.284;7.238;2023-07-13T09:22:03;4.20;;;1.75;;
16430;SDS011;8325;49.284;7.238;2023-07-13T09:26:21;2.22;;;1.77;;
16430;SDS011;8325;49.284;7.238;2023-07-13T09:30:42;3.75;;;1.75;;
16430;SDS011;8325;49.284;7.238;2023-07-13T09:35:12;3.65;;;1.70;;
16430;SDS011;8325;49.284;7.238;2023-07-13T09:39:29;5.32;;;1.63;;
16430;SDS011;8325;49.284;7.238;2023-07-13T09:48:20;1.65;;;1.30;;
16430;SDS011;8325;49.284;7.238;2023-07-13T09:56:56;3.35;;;1.40;;
16430;SDS011;8325;49.284;7.238;2023-07-13T10:01:09;3.58;;;1.30;;
16430;SDS011;8325;49.284;7.238;2023-07-13T10:05:21;3.35;;;1.40;;
16430;SDS011;8325;49.284;7.238;2023-07-13T10:09:36;3.40;;;1.40;;
16430;SDS011;8325;49.284;7.238;2023-07-13T10:13:54;2.03;;;1.45;;
16430;SDS011;8325;49.284;7.238;2023-07-13T10:18:09;1.95;;;1.30;;
16430;SDS011;8325;49.284;7.238;2023-07-13T10:22:25;2.88;;;1.42;;
16430;SDS011;8325;49.284;7.238;2023-07-13T10:26:43;3.97;;;1.40;;
16430;SDS011;8325;49.284;7.238;2023-07-13T10:30:59;2.30;;;1.52;;
16430;SDS011;8325;49.284;7.238;2023-07-13T10:35:14;3.10;;;1.60;;
16430;SDS011;8325;49.284;7.238;2023-07-13T10:39:29;2.40;;;1.30;;
16430;SDS011;8325;49.284;7.238;2023-07-13T10:43:43;1.65;;;1.45;;
16430;SDS011;8325;49.284;7.238;2023-07-13T10:47:56;3.90;;;1.60;;
16430;SDS011;8325;49.284;7.238;2023-07-13T10:57:14;2.55;;;1.50;;
16430;SDS011;8325;49.284;7.238;2023-07-13T11:01:38;3.05;;;1.58;;
16430;SDS011;8325;49.284;7.238;2023-07-13T11:06:03;2.78;;;1.30;;
16430;SDS011;8325;49.284;7.238;2023-07-13T11:23:29;4.15;;;1.45;;
16430;SDS011;8325;49.284;7.238;2023-07-13T11:27:43;2.88;;;1.27;;
16430;SDS011;8325;49.284;7.238;2023-07-13T11:31:58;1.50;;;1.20;;
16430;SDS011;8325;49.284;7.238;2023-07-13T11:40:32;2.75;;;1.00;;
16430;SDS011;8325;49.284;7.238;2023-07-13T11:44:48;1.48;;;1.38;;
16430;SDS011;8325;49.284;7.238;2023-07-13T11:49:19;3.40;;;1.30;;
16430;SDS011;8325;49.284;7.238;2023-07-13T11:53:38;1.45;;;0.98;;
16430;SDS011;8325;49.284;7.238;2023-07-13T12:02:16;1.65;;;1.15;;
16430;SDS011;8325;49.284;7.238;2023-07-13T12:06:35;4.57;;;1.60;;
16430;SDS011;8325;49.284;7.238;2023-07-13T12:10:59;4.25;;;1.30;;
16430;SDS011;8325;49.284;7.238;2023-07-13T12:15:16;1.80;;;1.27;;
16430;SDS011;8325;49.284;7.238;2023-07-13T12:19:28;3.35;;;1.35;;
16430;SDS011;8325;49.284;7.238;2023-07-13T12:23:42;2.22;;;1.27;;
16430;SDS011;8325;49.284;7.238;2023-07-13T12:27:55;1.90;;;1.20;;
16430;SDS011;8325;49.284;7.238;2023-07-13T12:32:08;3.65;;;1.30;;
16430;SDS011;8325;49.284;7.238;2023-07-13T12:36:20;3.45;;;1.23;;
16430;SDS011;8325;49.284;7.238;2023-07-13T12:40:33;2.72;;;1.23;;
16430;SDS011;8325;49.284;7.238;2023-07-13T12:44:47;1.65;;;1.20;;
16430;SDS011;8325;49.284;7.238;2023-07-13T12:48:59;1.38;;;1.10;;
16430;SDS011;8325;49.284;7.238;2023-07-13T12:53:29;2.38;;;1.10;;
16430;SDS011;8325;49.284;7.238;2023-07-13T13:02:00;2.58;;;1.23;;
16430;SDS011;8325;49.284;7.238;2023-07-13T13:10:26;3.70;;;1.30;;
16430;SDS011;8325;49.284;7.238;2023-07-13T13:14:38;4.43;;;1.70;;
16430;SDS011;8325;49.284;7.238;2023-07-13T13:18:50;3.67;;;1.45;;
16430;SDS011;8325;49.284;7.238;2023-07-13T13:23:04;2.22;;;1.30;;
16430;SDS011;8325;49.284;7.238;2023-07-13T13:27:19;2.28;;;1.20;;
16430;SDS011;8325;49.284;7.238;2023-07-13T13:31:33;3.90;;;1.40;;
16430;SDS011;8325;49.284;7.238;2023-07-13T13:35:45;3.17;;;1.35;;
16430;SDS011;8325;49.284;7.238;2023-07-13T13:39:57;2.42;;;1.25;;
16430;SDS011;8325;49.284;7.238;2023-07-13T13:44:20;2.30;;;1.27;;
16430;SDS011;8325;49.284;7.238;2023-07-13T13:48:33;3.97;;;1.40;;
16430;SDS011;8325;49.284;7.238;2023-07-13T13:52:46;2.08;;;1.15;;
16430;SDS011;8325;49.284;7.238;2023-07-13T13:56:58;1.52;;;1.00;;
16430;SDS011;8325;49.284;7.238;2023-07-13T14:01:17;4.68;;;1.67;;
16430;SDS011;8325;49.284;7.238;2023-07-13T14:05:31;3.55;;;1.10;;
16430;SDS011;8325;49.284;7.238;2023-07-13T14:09:43;1.58;;;1.40;;
16430;SDS011;8325;49.284;7.238;2023-07-13T14:13:56;2.13;;;1.40;;
16430;SDS011;8325;49.284;7.238;2023-07-13T14:18:09;3.78;;;1.80;;
16430;SDS011;8325;49.284;7.238;2023-07-13T14:22:20;2.53;;;1.33;;
16430;SDS011;8325;49.284;7.238;2023-07-13T14:26:35;2.42;;;1.50;;
16430;SDS011;8325;49.284;7.238;2023-07-13T14:30:49;3.00;;;1.38;;
16430;SDS011;8325;49.284;7.238;2023-07-13T14:35:01;2.80;;;1.35;;
16430;SDS011;8325;49.284;7.238;2023-07-13T14:39:20;1.85;;;1.38;;
16430;SDS011;8325;49.284;7.238;2023-07-13T14:43:33;2.05;;;1.27;;
16430;SDS011;8325;49.284;7.238;2023-07-13T14:47:45;4.43;;;1.40;;
16430;SDS011;8325;49.284;7.238;2023-07-13T14:51:58;2.00;;;1.15;;
16430;SDS011;8325;49.284;7.238;2023-07-13T14:56:30;2.28;;;1.25;;
16430;SDS011;8325;49.284;7.238;2023-07-13T15:00:42;2.47;;;0.88;;
16430;SDS011;8325;49.284;7.238;2023-07-13T15:04:53;1.20;;;1.10;;
16430;SDS011;8325;49.284;7.238;2023-07-13T15:09:08;2.50;;;1.10;;
16430;SDS011;8325;49.284;7.238;2023-07-13T15:13:22;1.20;;;1.02;;
16430;SDS011;8325;49.284;7.238;2023-07-13T15:17:36;4.63;;;1.15;;
16430;SDS011;8325;49.284;7.238;2023-07-13T15:21:53;4.13;;;1.27;;
16430;SDS011;8325;49.284;7.238;2023-07-13T15:26:11;1.20;;;1.10;;
16430;SDS011;8325;49.284;7.238;2023-07-13T15:30:27;1.25;;;1.08;;
16430;SDS011;8325;49.284;7.238;2023-07-13T15:34:41;1.60;;;1.08;;
16430;SDS011;8325;49.284;7.238;2023-07-13T15:38:53;1.45;;;1.30;;
16430;SDS011;8325;49.284;7.238;2023-07-13T15:43:10;1.63;;;1.20;;
16430;SDS011;8325;49.284;7.238;2023-07-13T15:47:23;1.60;;;1.27;;
16430;SDS011;8325;49.284;7.238;2023-07-13T15:51:34;1.15;;;0.98;;
16430;SDS011;8325;49.284;7.238;2023-07-13T15:55:46;3.47;;;1.30;;
16430;SDS011;8325;49.284;7.238;2023-07-13T15:59:58;1.85;;;1.00;;
16430;SDS011;8325;49.284;7.238;2023-07-13T16:04:10;3.58;;;1.27;;
16430;SDS011;8325;49.284;7.238;2023-07-13T16:08:24;1.65;;;1.20;;
16430;SDS011;8325;49.284;7.238;2023-07-13T16:12:38;1.67;;;1.10;;
16430;SDS011;8325;49.284;7.238;2023-07-13T16:16:53;2.47;;;1.20;;
16430;SDS011;8325;49.284;7.238;2023-07-13T16:21:11;2.65;;;1.25;;
16430;SDS011;8325;49.284;7.238;2023-07-13T16:25:25;1.92;;;1.20;;
16430;SDS011;8325;49.284;7.238;2023-07-13T16:29:37;3.42;;;1.00;;
16430;SDS011;8325;49.284;7.238;2023-07-13T16:33:50;3.90;;;1.35;;
16430;SDS011;8325;49.284;7.238;2023-07-13T16:38:23;1.40;;;1.30;;
16430;SDS011;8325;49.284;7.238;2023-07-13T16:42:33;2.70;;;1.27;;
16430;SDS011;8325;49.284;7.238;2023-07-13T16:46:49;3.22;;;1.27;;
16430;SDS011;8325;49.284;7.238;2023-07-13T16:51:04;4.25;;;1.58;;
16430;SDS011;8325;49.284;7.238;2023-07-13T16:55:20;2.83;;;1.40;;
16430;SDS011;8325;49.284;7.238;2023-07-13T16:59:40;2.53;;;1.20;;
16430;SDS011;8325;49.284;7.238;2023-07-13T17:03:52;1.67;;;1.30;;
16430;SDS011;8325;49.284;7.238;2023-07-13T17:08:19;1.40;;;1.30;;
16430;SDS011;8325;49.284;7.238;2023-07-13T17:12:37;4.32;;;1.90;;
16430;SDS011;8325;49.284;7.238;2023-07-13T17:16:50;2.72;;;1.42;;
16430;SDS011;8325;49.284;7.238;2023-07-13T17:21:05;2.55;;;1.27;;
16430;SDS011;8325;49.284;7.238;2023-07-13T17:25:20;3.42;;;1.40;;
16430;SDS011;8325;49.284;7.238;2023-07-13T17:29:34;1.90;;;1.48;;
16430;SDS011;8325;49.284;7.238;2023-07-13T17:33:50;2.20;;;1.48;;
16430;SDS011;8325;49.284;7.238;2023-07-13T17:38:03;2.88;;;1.90;;
16430;SDS011;8325;49.284;7.238;2023-07-13T17:42:17;4.43;;;1.67;;
16430;SDS011;8325;49.284;7.238;2023-07-13T17:46:30;2.35;;;1.55;;
16430;SDS011;8325;49.284;7.238;2023-07-13T17:50:50;2.28;;;1.65;;
16430;SDS011;8325;49.284;7.238;2023-07-13T17:55:08;3.00;;;1.90;;
16430;SDS011;8325;49.284;7.238;2023-07-13T17:59:26;3.10;;;1.55;;
16430;SDS011;8325;49.284;7.238;2023-07-13T18:03:42;2.53;;;1.55;;
16430;SDS011;8325;49.284;7.238;2023-07-13T18:07:56;2.97;;;1.60;;
16430;SDS011;8325;49.284;7.238;2023-07-13T18:12:12;2.60;;;1.67;;
16430;SDS011;8325;49.284;7.238;2023-07-13T18:16:28;2.10;;;1.30;;
16430;SDS011;8325;49.284;7.238;2023-07-13T18:20:43;4.97;;;1.33;;
16430;SDS011;8325;49.284;7.238;2023-07-13T18:24:56;2.15;;;1.20;;
16430;SDS011;8325;49.284;7.238;2023-07-13T18:29:08;3.38;;;1.30;;
16430;SDS011;8325;49.284;7.238;2023-07-13T18:33:25;1.50;;;1.23;;
16430;SDS011;8325;49.284;7.238;2023-07-13T18:37:46;3.40;;;1.48;;
16430;SDS011;8325;49.284;7.238;2023-07-13T18:42:03;5.20;;;1.55;;
16430;SDS011;8325;49.284;7.238;2023-07-13T18:50:46;2.28;;;1.35;;
16430;SDS011;8325;49.284;7.238;2023-07-13T18:55:01;2.03;;;1.42;;
16430;SDS011;8325;49.284;7.238;2023-07-13T18:59:18;4.25;;;1.45;;
16430;SDS011;8325;49.284;7.238;2023-07-13T19:03:36;1.70;;;1.38;;
16430;SDS011;8325;49.284;7.238;2023-07-13T19:07:48;3.20;;;1.58;;
16430;SDS011;8325;49.284;7.238;2023-07-13T19:11:59;3.42;;;1.73;;
16430;SDS011;8325;49.284;7.238;2023-07-13T19:16:12;3.22;;;1.73;;
16430;SDS011;8325;49.284;7.238;2023-07-13T19:20:25;2.60;;;1.90;;
16430;SDS011;8325;49.284;7.238;2023-07-13T19:24:38;2.28;;;2.05;;
16430;SDS011;8325;49.284;7.238;2023-07-13T19:28:51;3.67;;;1.83;;
16430;SDS011;8325;49.284;7.238;2023-07-13T19:33:05;3.30;;;1.70;;
16430;SDS011;8325;49.284;7.238;2023-07-13T19:37:21;2.38;;;1.67;;
16430;SDS011;8325;49.284;7.238;2023-07-13T19:41:35;2.50;;;1.55;;
16430;SDS011;8325;49.284;7.238;2023-07-13T19:45:48;2.03;;;1.80;;
16430;SDS011;8325;49.284;7.238;2023-07-13T19:49:59;2.90;;;1.70;;
16430;SDS011;8325;49.284;7.238;2023-07-13T19:54:14;3.17;;;2.10;;
16430;SDS011;8325;49.284;7.238;2023-07-13T19:58:28;2.28;;;1.60;;
16430;SDS011;8325;49.284;7.238;2023-07-13T20:02:39;4.00;;;1.85;;
16430;SDS011;8325;49.284;7.238;2023-07-13T20:06:51;2.17;;;1.83;;
16430;SDS011;8325;49.284;7.238;2023-07-13T20:11:02;2.95;;;1.55;;
16430;SDS011;8325;49.284;7.238;2023-07-13T20:15:15;2.80;;;1.77;;
16430;SDS011;8325;49.284;7.238;2023-07-13T20:19:30;3.42;;;1.85;;
16430;SDS011;8325;49.284;7.238;2023-07-13T20:23:46;2.85;;;1.60;;
16430;SDS011;8325;49.284;7.238;2023-07-13T20:27:58;2.25;;;1.60;;
16430;SDS011;8325;49.284;7.238;2023-07-13T20:32:17;2.60;;;1.90;;
16430;SDS011;8325;49.284;7.238;2023-07-13T20:36:31;4.68;;;2.78;;
16430;SDS011;8325;49.284;7.238;2023-07-13T20:40:49;3.53;;;1.95;;
16430;SDS011;8325;49.284;7.238;2023-07-13T20:45:53;4.90;;;1.80;;
16430;SDS011;8325;49.284;7.238;2023-07-13T20:54:31;3.72;;;1.85;;
16430;SDS011;8325;49.284;7.238;2023-07-13T20:58:43;2.90;;;2.00;;
16430;SDS011;8325;49.284;7.238;2023-07-13T21:03:00;1.75;;;1.50;;
16430;SDS011;8325;49.284;7.238;2023-07-13T21:07:17;2.53;;;1.52;;
16430;SDS011;8325;49.284;7.238;2023-07-13T21:11:30;4.30;;;1.77;;
16430;SDS011;8325;49.284;7.238;2023-07-13T21:15:43;2.47;;;1.92;;
16430;SDS011;8325;49.284;7.238;2023-07-13T21:19:58;1.67;;;1.52;;
16430;SDS011;8325;49.284;7.238;2023-07-13T21:24:10;3.83;;;2.00;;
16430;SDS011;8325;49.284;7.238;2023-07-13T21:28:22;3.88;;;2.03;;
